Time;durP1;ratioP1;P1;durP2;ratioP2;P2;SDS_P1;SDS_P2;PMS_P1;PMS_P2;Temp;Humidity;BMP_temperature;BMP_pressure;BME280_temperature;BME280_humidity;BME280_pressure;Samples;Min_cycle;Max_cycle;Signal;HPM_P1;HPM_P2
2022/12/21 00:01:55;;;;;;;85.15;34.63;;;;;;;;;;5007351;28;98548;-73
2022/12/21 00:04:22;;;;;;;84.13;33.47;;;;;;;;;;5008364;28;100212;-73
2022/12/21 00:06:49;;;;;;;85.90;33.33;;;;;;;;;;5007376;28;98320;-74
2022/12/21 00:09:15;;;;;;;80.15;34.40;;;;;;;;;;5008104;28;98507;-72
2022/12/21 00:11:41;;;;;;;78.65;32.97;;;;;;;;;;4999240;28;99962;-72
2022/12/21 00:14:08;;;;;;;84.63;33.47;;;;;;;;;;4986700;28;99043;-72
2022/12/21 00:16:36;;;;;;;77.82;33.15;;;;;;;;;;4984022;28;99769;-72
2022/12/21 00:19:03;;;;;;;77.97;33.80;;;;;;;;;;4986756;28;98469;-72
2022/12/21 00:21:34;;;;;;;74.53;32.53;;;;;;;;;;4987327;28;99756;-72
2022/12/21 00:24:00;;;;;;;79.22;33.67;;;;;;;;;;5004063;28;99023;-73
2022/12/21 00:26:28;;;;;;;72.25;33.97;;;;;;;;;;5007310;28;98830;-72
2022/12/21 00:28:55;;;;;;;70.53;32.30;;;;;;;;;;4991798;28;98802;-73
2022/12/21 00:31:23;;;;;;;81.32;32.40;;;;;;;;;;4986646;28;100044;-72
2022/12/21 00:33:52;;;;;;;83.15;34.10;;;;;;;;;;4988260;28;98333;-73
2022/12/21 00:36:19;;;;;;;79.70;33.28;;;;;;;;;;4990942;28;98803;-72
2022/12/21 00:38:49;;;;;;;84.05;33.53;;;;;;;;;;4988309;28;98193;-73
2022/12/21 00:41:16;;;;;;;78.95;34.08;;;;;;;;;;4975064;28;98540;-73
2022/12/21 00:43:43;;;;;;;74.82;33.17;;;;;;;;;;4987144;28;100146;-74
2022/12/21 00:46:16;;;;;;;78.57;33.22;;;;;;;;;;4987985;28;98285;-72
2022/12/21 00:48:43;;;;;;;80.18;32.85;;;;;;;;;;4987837;28;98391;-72
2022/12/21 00:51:11;;;;;;;68.97;32.03;;;;;;;;;;4984810;28;100521;-73
2022/12/21 00:53:38;;;;;;;60.55;29.58;;;;;;;;;;4987653;28;98209;-72
2022/12/21 00:56:06;;;;;;;64.18;29.50;;;;;;;;;;4990457;28;99122;-72
2022/12/21 00:58:33;;;;;;;60.80;28.63;;;;;;;;;;5008769;28;99141;-72
2022/12/21 01:01:03;;;;;;;70.22;28.48;;;;;;;;;;5007551;28;100570;-72
2022/12/21 01:03:29;;;;;;;52.78;27.33;;;;;;;;;;5005730;28;101625;-73
2022/12/21 01:05:56;;;;;;;57.17;26.95;;;;;;;;;;5005200;28;99523;-73
2022/12/21 01:08:24;;;;;;;56.28;27.25;;;;;;;;;;5006296;28;99001;-74
2022/12/21 01:11:00;;;;;;;55.25;26.38;;;;;;;;;;5006251;28;98943;-73
2022/12/21 01:13:27;;;;;;;51.60;24.42;;;;;;;;;;5006972;28;98663;-73
2022/12/21 01:15:53;;;;;;;50.30;24.85;;;;;;;;;;5006875;28;99486;-73
2022/12/21 01:18:20;;;;;;;55.03;25.38;;;;;;;;;;4993492;28;99033;-73
2022/12/21 01:20:49;;;;;;;55.33;25.83;;;;;;;;;;4984701;28;98904;-73
2022/12/21 01:23:16;;;;;;;50.50;24.70;;;;;;;;;;4981177;28;100382;-73
2022/12/21 01:25:43;;;;;;;58.35;24.27;;;;;;;;;;4986302;28;98457;-73
2022/12/21 01:28:10;;;;;;;56.25;24.27;;;;;;;;;;4989401;28;100773;-73
2022/12/21 01:30:38;;;;;;;53.60;23.95;;;;;;;;;;4992473;28;99169;-73
2022/12/21 01:33:06;;;;;;;57.28;24.25;;;;;;;;;;5005098;28;98580;-73
2022/12/21 01:35:32;;;;;;;50.25;23.60;;;;;;;;;;5005576;28;101008;-73
2022/12/21 01:37:59;;;;;;;61.65;23.90;;;;;;;;;;4991856;28;99952;-73
2022/12/21 01:40:28;;;;;;;57.13;25.20;;;;;;;;;;4988876;28;98287;-75
2022/12/21 01:42:54;;;;;;;49.88;23.05;;;;;;;;;;5004581;28;101994;-74
2022/12/21 01:45:26;;;;;;;61.72;23.58;;;;;;;;;;5007412;28;98276;-73
2022/12/21 01:47:56;;;;;;;57.47;22.40;;;;;;;;;;5004973;28;98938;-74
2022/12/21 01:50:45;;;;;;;51.83;23.15;;;;;;;;;;5007812;28;98910;-74
2022/12/21 01:53:12;;;;;;;50.63;22.23;;;;;;;;;;5006953;28;98152;-73
2022/12/21 01:55:38;;;;;;;46.88;23.15;;;;;;;;;;5007781;28;99352;-73
2022/12/21 01:58:06;;;;;;;46.40;22.70;;;;;;;;;;5005979;28;102807;-73
2022/12/21 02:00:32;;;;;;;45.45;22.75;;;;;;;;;;5004608;28;98310;-73
2022/12/21 02:03:00;;;;;;;51.00;23.75;;;;;;;;;;5010179;28;98475;-73
2022/12/21 02:05:27;;;;;;;55.83;23.80;;;;;;;;;;5003013;28;98271;-73
2022/12/21 02:07:55;;;;;;;52.75;25.17;;;;;;;;;;4994887;28;98364;-74
2022/12/21 02:10:23;;;;;;;54.88;24.98;;;;;;;;;;5004974;28;102718;-73
2022/12/21 02:12:50;;;;;;;53.97;25.60;;;;;;;;;;5007320;28;98373;-73
2022/12/21 02:15:17;;;;;;;53.20;26.33;;;;;;;;;;5006125;28;99528;-73
2022/12/21 02:17:52;;;;;;;65.35;26.48;;;;;;;;;;5004731;28;103075;-73
2022/12/21 02:20:27;;;;;;;51.88;25.30;;;;;;;;;;5006760;28;98200;-73
2022/12/21 02:22:54;;;;;;;51.60;26.10;;;;;;;;;;4988088;28;99497;-73
2022/12/21 02:25:34;;;;;;;63.70;28.38;;;;;;;;;;4984723;28;100242;-74
2022/12/21 02:28:03;;;;;;;69.57;28.35;;;;;;;;;;4982287;28;99415;-73
2022/12/21 02:30:43;;;;;;;56.17;27.08;;;;;;;;;;4982195;28;98993;-73
2022/12/21 02:33:18;;;;;;;60.40;27.73;;;;;;;;;;4986664;28;98735;-73
2022/12/21 02:35:44;;;;;;;;;;;;;;;;;;4986289;28;98302;-73
2022/12/21 02:38:16;;;;;;;56.90;26.08;;;;;;;;;;4984676;28;124106;-73
2022/12/21 02:40:49;;;;;;;66.68;28.75;;;;;;;;;;5018277;28;98813;-73
2022/12/21 02:46:26;;;;;;;75.22;27.23;;;;;;;;;;4989889;28;99121;-73
2022/12/21 02:48:57;;;;;;;50.17;27.10;;;;;;;;;;4993398;28;99132;-74
2022/12/21 02:51:29;;;;;;;60.00;25.15;;;;;;;;;;4988600;28;99888;-73
2022/12/21 02:53:56;;;;;;;52.92;25.65;;;;;;;;;;4989381;28;98329;-75
2022/12/21 02:56:22;;;;;;;54.20;25.45;;;;;;;;;;4986821;28;100907;-72
2022/12/21 02:58:48;;;;;;;44.20;23.83;;;;;;;;;;4989763;28;99093;-73
2022/12/21 03:01:19;;;;;;;61.28;24.42;;;;;;;;;;4988366;28;98323;-73
2022/12/21 03:03:49;;;;;;;51.38;25.17;;;;;;;;;;4987175;28;99387;-73
2022/12/21 03:06:29;;;;;;;49.90;23.17;;;;;;;;;;4987075;28;101708;-73
2022/12/21 03:09:14;;;;;;;46.35;23.17;;;;;;;;;;4989582;28;98333;-73
2022/12/21 03:11:44;;;;;;;58.78;24.20;;;;;;;;;;4990039;28;101033;-72
2022/12/21 03:14:17;;;;;;;47.05;23.58;;;;;;;;;;4988569;28;98331;-72
2022/12/21 03:16:44;;;;;;;53.83;24.02;;;;;;;;;;4988888;28;98551;-74
2022/12/21 03:19:11;;;;;;;50.58;25.40;;;;;;;;;;4987069;28;99974;-74
2022/12/21 03:21:41;;;;;;;60.65;27.10;;;;;;;;;;5020524;28;98324;-74
2022/12/21 03:24:14;;;;;;;57.15;25.05;;;;;;;;;;5007713;28;98454;-72
2022/12/21 03:26:49;;;;;;;63.63;26.92;;;;;;;;;;5007910;28;99454;-72
2022/12/21 03:29:17;;;;;;;57.15;27.65;;;;;;;;;;5004360;28;99101;-72
2022/12/21 03:31:46;;;;;;;58.80;27.10;;;;;;;;;;4982351;28;100275;-73
2022/12/21 03:34:18;;;;;;;68.22;26.67;;;;;;;;;;4987559;28;98803;-73
2022/12/21 03:37:01;;;;;;;60.60;27.87;;;;;;;;;;4986688;28;98798;-73
2022/12/21 03:39:29;;;;;;;58.20;27.10;;;;;;;;;;4987965;28;100218;-73
2022/12/21 03:42:07;;;;;;;62.75;27.70;;;;;;;;;;4988966;28;98321;-72
2022/12/21 03:44:37;;;;;;;62.47;26.45;;;;;;;;;;4988610;28;99513;-73
2022/12/21 03:47:09;;;;;;;66.22;27.75;;;;;;;;;;4987307;28;98969;-73
2022/12/21 03:49:47;;;;;;;69.03;27.52;;;;;;;;;;4988393;28;98458;-73
2022/12/21 03:52:14;;;;;;;64.70;27.73;;;;;;;;;;4988985;28;99509;-73
2022/12/21 03:54:43;;;;;;;73.75;29.60;;;;;;;;;;4991011;28;98969;-73
2022/12/21 03:57:10;;;;;;;76.80;29.75;;;;;;;;;;4988661;28;99399;-74
2022/12/21 03:59:41;;;;;;;77.15;28.88;;;;;;;;;;4987633;28;99376;-74
2022/12/21 04:02:10;;;;;;;81.35;30.38;;;;;;;;;;4988506;28;98234;-73
2022/12/21 04:04:37;;;;;;;70.35;29.67;;;;;;;;;;4989066;28;99696;-73
2022/12/21 04:07:04;;;;;;;69.65;29.70;;;;;;;;;;4986916;28;100089;-73
2022/12/21 04:09:31;;;;;;;75.00;30.77;;;;;;;;;;4988057;28;98048;-73
2022/12/21 04:14:49;;;;;;;86.47;31.33;;;;;;;;;;4987787;28;99943;-75
2022/12/21 04:17:16;;;;;;;81.13;31.33;;;;;;;;;;4992097;28;99006;-73
2022/12/21 04:19:57;;;;;;;77.65;31.75;;;;;;;;;;4988665;28;100298;-73
2022/12/21 04:28:07;;;;;;;84.10;33.75;;;;;;;;;;4967222;28;99815;-73
2022/12/21 04:30:53;;;;;;;84.18;33.15;;;;;;;;;;4968666;28;98625;-73
2022/12/21 04:33:20;;;;;;;86.07;34.25;;;;;;;;;;4968284;28;99449;-73
2022/12/21 04:38:33;;;;;;;99.55;36.50;;;;;;;;;;4983375;28;98934;-73
2022/12/21 04:40:59;;;;;;;96.68;36.58;;;;;;;;;;4986461;28;99918;-73
2022/12/21 04:43:26;;;;;;;92.70;37.25;;;;;;;;;;4986742;28;98401;-73
2022/12/21 04:46:12;;;;;;;89.63;36.42;;;;;;;;;;4988588;28;98889;-73
2022/12/21 04:48:39;;;;;;;94.80;36.95;;;;;;;;;;4988166;28;99064;-73
2022/12/21 04:51:07;;;;;;;95.55;37.08;;;;;;;;;;4987465;28;98460;-73
2022/12/21 04:53:34;;;;;;;102.50;37.20;;;;;;;;;;4987537;28;99345;-73
2022/12/21 04:56:00;;;;;;;93.75;34.78;;;;;;;;;;4987708;28;99116;-74
2022/12/21 04:58:26;;;;;;;101.80;39.78;;;;;;;;;;4987432;28;98297;-73
2022/12/21 05:00:53;;;;;;;93.65;39.05;;;;;;;;;;4987915;28;99918;-73
2022/12/21 05:03:19;;;;;;;112.22;40.10;;;;;;;;;;4989343;28;100165;-73
2022/12/21 05:05:46;;;;;;;121.13;40.88;;;;;;;;;;4986058;28;99432;-73
2022/12/21 05:08:13;;;;;;;150.25;44.95;;;;;;;;;;4987406;28;100014;-73
2022/12/21 05:10:48;;;;;;;144.60;42.65;;;;;;;;;;4987245;28;98212;-73
2022/12/21 05:13:14;;;;;;;162.15;44.22;;;;;;;;;;4987472;28;98770;-74
2022/12/21 05:15:40;;;;;;;182.35;44.53;;;;;;;;;;4986929;28;100060;-73
2022/12/21 05:18:07;;;;;;;164.10;45.58;;;;;;;;;;4986855;28;98655;-73
2022/12/21 05:20:33;;;;;;;211.98;46.00;;;;;;;;;;4987748;28;98706;-73
2022/12/21 05:22:59;;;;;;;233.00;45.75;;;;;;;;;;4986984;28;99066;-73
2022/12/21 05:25:26;;;;;;;249.82;48.90;;;;;;;;;;4990802;27;98301;-73
2022/12/21 05:27:52;;;;;;;249.15;49.38;;;;;;;;;;4986863;28;100500;-73
2022/12/21 05:30:19;;;;;;;255.25;47.67;;;;;;;;;;4987427;28;98168;-73
2022/12/21 05:32:45;;;;;;;191.48;45.35;;;;;;;;;;4986566;28;99659;-73
2022/12/21 05:35:11;;;;;;;191.35;45.08;;;;;;;;;;4987144;28;99986;-73
2022/12/21 05:37:42;;;;;;;232.85;51.30;;;;;;;;;;4986960;28;98763;-73
2022/12/21 05:40:08;;;;;;;170.18;45.65;;;;;;;;;;4986495;28;99779;-73
2022/12/21 05:42:35;;;;;;;159.75;45.45;;;;;;;;;;4982107;28;100246;-72
2022/12/21 05:45:01;;;;;;;225.15;50.08;;;;;;;;;;4987710;28;100303;-73
2022/12/21 05:47:27;;;;;;;207.00;48.78;;;;;;;;;;4981581;28;100422;-73
2022/12/21 05:49:54;;;;;;;158.48;46.28;;;;;;;;;;4998029;28;98304;-74
2022/12/21 05:52:20;;;;;;;276.27;53.00;;;;;;;;;;5005379;28;99370;-73
2022/12/21 05:54:47;;;;;;;255.27;52.75;;;;;;;;;;5006897;28;98985;-73
2022/12/21 05:57:13;;;;;;;304.67;52.72;;;;;;;;;;5006832;28;98287;-73
2022/12/21 05:59:39;;;;;;;237.35;50.35;;;;;;;;;;5005539;28;98568;-73
2022/12/21 06:02:06;;;;;;;223.90;52.33;;;;;;;;;;5005834;28;99959;-73
2022/12/21 06:04:32;;;;;;;221.88;49.88;;;;;;;;;;5006679;28;98279;-73
2022/12/21 06:06:59;;;;;;;265.38;52.20;;;;;;;;;;5006832;28;99591;-73
2022/12/21 06:09:25;;;;;;;333.77;55.33;;;;;;;;;;5006398;28;98476;-73
2022/12/21 06:11:52;;;;;;;452.90;66.13;;;;;;;;;;5004930;28;98745;-73
2022/12/21 06:14:18;;;;;;;242.02;53.40;;;;;;;;;;5006109;28;100166;-74
2022/12/21 06:16:45;;;;;;;373.65;63.38;;;;;;;;;;5005721;28;98475;-73
2022/12/21 06:19:12;;;;;;;322.48;56.42;;;;;;;;;;5007871;28;100964;-73
2022/12/21 06:21:38;;;;;;;209.77;48.20;;;;;;;;;;5007635;28;100175;-73
2022/12/21 06:24:05;;;;;;;258.38;54.67;;;;;;;;;;5010351;28;98492;-73
2022/12/21 06:26:31;;;;;;;247.25;52.53;;;;;;;;;;5009356;28;98717;-73
2022/12/21 06:28:58;;;;;;;193.80;48.25;;;;;;;;;;5012333;28;100025;-73
2022/12/21 06:31:24;;;;;;;184.98;46.25;;;;;;;;;;5009893;28;99408;-73
2022/12/21 06:33:51;;;;;;;220.63;47.38;;;;;;;;;;5010085;28;99981;-73
2022/12/21 06:36:17;;;;;;;165.65;46.10;;;;;;;;;;5007635;28;98898;-73
2022/12/21 06:38:44;;;;;;;248.52;51.75;;;;;;;;;;4989395;28;98526;-73
2022/12/21 06:41:11;;;;;;;251.77;53.60;;;;;;;;;;4990004;28;99994;-73
2022/12/21 06:43:38;;;;;;;236.20;50.72;;;;;;;;;;4989433;28;98289;-73
2022/12/21 06:46:05;;;;;;;273.73;55.55;;;;;;;;;;4989837;28;99708;-73
2022/12/21 06:48:32;;;;;;;166.10;47.25;;;;;;;;;;4985754;28;100205;-73
2022/12/21 06:51:00;;;;;;;315.73;59.83;;;;;;;;;;4988958;28;99366;-73
2022/12/21 06:53:27;;;;;;;175.95;44.97;;;;;;;;;;4983757;28;100140;-72
2022/12/21 06:55:58;;;;;;;228.27;52.55;;;;;;;;;;4988784;28;98413;-74
2022/12/21 06:58:24;;;;;;;223.65;53.25;;;;;;;;;;4989731;28;98750;-73
2022/12/21 07:00:51;;;;;;;186.25;48.13;;;;;;;;;;4990254;28;100133;-72
2022/12/21 07:03:17;;;;;;;190.18;50.67;;;;;;;;;;4992205;28;98638;-72
2022/12/21 07:05:42;;;;;;;191.93;51.30;;;;;;;;;;4973275;28;99352;-73
2022/12/21 07:08:09;;;;;;;177.02;51.20;;;;;;;;;;4983868;28;99996;-75
2022/12/21 07:10:37;;;;;;;174.60;53.20;;;;;;;;;;4978899;28;99012;-74
2022/12/21 07:13:08;;;;;;;178.18;53.75;;;;;;;;;;4985019;28;100562;-74
2022/12/21 07:15:36;;;;;;;189.10;54.03;;;;;;;;;;4983212;28;98279;-74
2022/12/21 07:18:02;;;;;;;178.13;55.80;;;;;;;;;;4972565;28;98531;-74
2022/12/21 07:20:29;;;;;;;158.00;55.03;;;;;;;;;;4986003;28;99123;-74
2022/12/21 07:22:55;;;;;;;157.13;53.78;;;;;;;;;;4989021;28;98416;-73
2022/12/21 07:25:22;;;;;;;164.88;55.15;;;;;;;;;;4988505;28;99067;-75
2022/12/21 07:27:48;;;;;;;154.88;57.05;;;;;;;;;;4986612;28;99893;-73
2022/12/21 07:30:15;;;;;;;157.73;52.65;;;;;;;;;;4982115;28;98412;-73
2022/12/21 07:32:41;;;;;;;145.43;54.33;;;;;;;;;;4983442;28;99802;-73
2022/12/21 07:35:08;;;;;;;167.30;54.45;;;;;;;;;;4986819;28;100019;-74
2022/12/21 07:37:35;;;;;;;155.60;55.13;;;;;;;;;;4979671;28;99627;-73
2022/12/21 07:40:03;;;;;;;146.85;52.55;;;;;;;;;;4986223;28;100361;-73
2022/12/21 07:42:31;;;;;;;143.88;51.42;;;;;;;;;;4989571;28;98327;-74
2022/12/21 07:45:03;;;;;;;142.55;52.80;;;;;;;;;;4986739;28;100778;-73
2022/12/21 07:47:35;;;;;;;160.40;53.45;;;;;;;;;;5020227;28;99039;-74
2022/12/21 07:50:02;;;;;;;164.30;53.67;;;;;;;;;;4988963;28;98312;-73
2022/12/21 07:52:32;;;;;;;149.30;54.22;;;;;;;;;;4987355;28;99377;-73
2022/12/21 07:54:58;;;;;;;141.88;53.00;;;;;;;;;;4985439;28;99127;-73
2022/12/21 07:57:25;;;;;;;134.27;53.10;;;;;;;;;;4983701;28;101098;-73
2022/12/21 07:59:51;;;;;;;147.00;53.30;;;;;;;;;;4984025;28;99941;-74
2022/12/21 08:02:17;;;;;;;135.75;51.08;;;;;;;;;;4982503;28;98253;-74
2022/12/21 08:04:44;;;;;;;156.65;52.75;;;;;;;;;;4982976;28;99361;-74
2022/12/21 08:07:11;;;;;;;137.55;53.15;;;;;;;;;;4990469;28;100153;-74
2022/12/21 08:09:37;;;;;;;46.67;26.95;;;;;;;;;;4978908;28;100129;-74
2022/12/21 08:12:04;;;;;;;105.40;46.75;;;;;;;;;;4986897;28;99436;-73
2022/12/21 08:14:30;;;;;;;93.57;43.15;;;;;;;;;;4986754;28;99016;-74
2022/12/21 08:16:57;;;;;;;115.22;46.53;;;;;;;;;;4990586;28;98361;-74
2022/12/21 08:19:23;;;;;;;93.03;44.42;;;;;;;;;;4987273;28;99986;-73
2022/12/21 08:21:49;;;;;;;103.05;46.45;;;;;;;;;;4987442;28;98265;-74
2022/12/21 08:24:16;;;;;;;99.45;43.67;;;;;;;;;;4988187;28;99720;-73
2022/12/21 08:26:42;;;;;;;102.28;44.70;;;;;;;;;;4987643;28;100535;-74
2022/12/21 08:29:11;;;;;;;95.65;44.60;;;;;;;;;;4987483;28;98588;-74
2022/12/21 08:31:38;;;;;;;102.82;48.13;;;;;;;;;;4988136;28;99659;-74
2022/12/21 08:34:04;;;;;;;99.03;44.25;;;;;;;;;;4986504;28;99819;-74
2022/12/21 08:36:31;;;;;;;100.88;45.90;;;;;;;;;;4986999;28;98322;-72
2022/12/21 08:38:57;;;;;;;96.20;45.88;;;;;;;;;;4998043;28;99429;-73
2022/12/21 08:41:33;;;;;;;87.13;42.05;;;;;;;;;;4986652;28;98170;-74
2022/12/21 08:44:00;;;;;;;90.05;43.15;;;;;;;;;;4986986;28;99869;-74
2022/12/21 08:46:26;;;;;;;89.75;43.08;;;;;;;;;;4987251;28;100012;-73
2022/12/21 08:48:53;;;;;;;92.47;43.90;;;;;;;;;;4987132;28;98839;-73
2022/12/21 08:51:20;;;;;;;92.35;42.35;;;;;;;;;;4987673;28;99271;-73
2022/12/21 08:53:46;;;;;;;95.50;45.45;;;;;;;;;;4987241;28;99998;-73
2022/12/21 08:56:18;;;;;;;98.32;44.17;;;;;;;;;;4987622;28;98352;-74
2022/12/21 08:58:44;;;;;;;91.78;45.25;;;;;;;;;;4987718;28;98697;-74
2022/12/21 09:01:10;;;;;;;89.13;42.40;;;;;;;;;;4986214;28;100382;-74
2022/12/21 09:03:37;;;;;;;97.65;42.42;;;;;;;;;;4982258;28;98901;-74
2022/12/21 09:06:04;;;;;;;100.55;45.72;;;;;;;;;;4981194;28;99189;-74
2022/12/21 09:08:34;;;;;;;90.95;42.95;;;;;;;;;;4986585;28;98354;-74
2022/12/21 09:11:04;;;;;;;93.07;42.63;;;;;;;;;;4987078;28;98715;-74
2022/12/21 09:13:30;;;;;;;77.45;39.45;;;;;;;;;;4986870;28;100052;-74
2022/12/21 09:15:57;;;;;;;86.10;42.38;;;;;;;;;;4985924;28;98348;-74
2022/12/21 09:18:23;;;;;;;90.50;42.90;;;;;;;;;;4979092;28;99699;-73
2022/12/21 09:20:50;;;;;;;79.95;42.08;;;;;;;;;;4984908;28;100178;-74
2022/12/21 09:23:16;;;;;;;78.75;40.22;;;;;;;;;;4988487;28;98880;-73
2022/12/21 09:25:42;;;;;;;87.30;41.90;;;;;;;;;;4986998;28;100130;-74
2022/12/21 09:28:09;;;;;;;92.38;42.50;;;;;;;;;;4987201;28;98004;-74
2022/12/21 09:30:35;;;;;;;88.97;40.88;;;;;;;;;;4985139;28;99351;-73
2022/12/21 09:33:02;;;;;;;99.60;45.00;;;;;;;;;;4984138;28;100281;-74
2022/12/21 09:35:29;;;;;;;88.45;42.90;;;;;;;;;;4983727;28;98311;-74
2022/12/21 09:37:57;;;;;;;104.70;44.20;;;;;;;;;;4984867;28;98845;-73
2022/12/21 09:40:24;;;;;;;94.40;43.80;;;;;;;;;;4986975;28;100076;-74
2022/12/21 09:43:06;;;;;;;96.68;44.72;;;;;;;;;;4985973;28;100174;-74
2022/12/21 09:45:52;;;;;;;96.40;44.83;;;;;;;;;;4989179;28;99511;-74
2022/12/21 09:48:21;;;;;;;108.47;44.95;;;;;;;;;;4985520;28;98326;-74
2022/12/21 09:51:00;;;;;;;104.40;47.88;;;;;;;;;;4985122;28;99513;-74
2022/12/21 09:53:32;;;;;;;108.70;50.20;;;;;;;;;;4988274;28;99822;-74
2022/12/21 09:55:59;;;;;;;99.13;44.67;;;;;;;;;;4990368;28;98313;-74
2022/12/21 09:58:33;;;;;;;110.50;46.35;;;;;;;;;;4988004;28;98715;-74
2022/12/21 10:01:17;;;;;;;91.40;45.83;;;;;;;;;;4989094;28;99967;-74
2022/12/21 10:03:58;;;;;;;91.78;42.42;;;;;;;;;;4988351;28;98326;-73
2022/12/21 10:06:57;;;;;;;44.08;27.27;;;;;;;;;;4986399;28;99307;-73
2022/12/21 10:09:30;;;;;;;72.90;36.60;;;;;;;;;;4955231;28;98356;-74
2022/12/21 10:12:00;;;;;;;69.40;37.53;;;;;;;;;;4985350;28;99534;-74
2022/12/21 10:14:42;;;;;;;63.40;35.85;;;;;;;;;;4986103;28;100298;-74
2022/12/21 10:17:11;;;;;;;72.23;38.83;;;;;;;;;;4970556;28;98175;-74
2022/12/21 10:20:08;;;;;;;61.28;36.00;;;;;;;;;;4985900;28;99381;-75
2022/12/21 10:22:42;;;;;;;69.18;37.97;;;;;;;;;;4987977;28;100193;-74
2022/12/21 10:25:14;;;;;;;66.10;35.47;;;;;;;;;;4977640;28;98425;-74
2022/12/21 10:27:43;;;;;;;60.83;35.43;;;;;;;;;;4987069;28;99297;-74
2022/12/21 10:30:14;;;;;;;64.88;35.75;;;;;;;;;;4991589;28;99191;-74
2022/12/21 10:32:42;;;;;;;64.72;32.10;;;;;;;;;;4981127;28;99817;-74
2022/12/21 10:35:14;;;;;;;55.65;31.25;;;;;;;;;;4982431;28;99085;-74
2022/12/21 10:37:40;;;;;;;52.65;29.10;;;;;;;;;;4978246;28;98048;-74
2022/12/21 10:40:10;;;;;;;44.63;26.85;;;;;;;;;;4980943;28;98949;-75
2022/12/21 10:42:40;;;;;;;60.10;30.38;;;;;;;;;;4989239;27;99190;-74
2022/12/21 10:45:12;;;;;;;51.30;25.27;;;;;;;;;;4986774;28;98744;-74
2022/12/21 10:47:40;;;;;;;49.55;24.50;;;;;;;;;;4981817;28;98845;-75
2022/12/21 10:50:15;;;;;;;50.53;25.13;;;;;;;;;;4984485;28;101026;-73
2022/12/21 10:52:46;;;;;;;147.73;84.00;;;;;;;;;;4979966;28;98213;-74
2022/12/21 10:55:18;;;;;;;107.30;60.22;;;;;;;;;;4978120;28;100124;-74
2022/12/21 10:57:45;;;;;;;55.17;30.75;;;;;;;;;;4983219;28;98066;-73
2022/12/21 11:00:22;;;;;;;61.75;30.95;;;;;;;;;;4980460;28;98949;-74
2022/12/21 11:02:50;;;;;;;46.63;23.30;;;;;;;;;;4986911;28;100080;-76
2022/12/21 11:05:26;;;;;;;41.78;22.13;;;;;;;;;;4982455;28;98897;-72
2022/12/21 11:07:53;;;;;;;39.03;21.90;;;;;;;;;;4982183;28;101879;-75
2022/12/21 11:10:26;;;;;;;38.75;22.95;;;;;;;;;;4978078;28;99999;-74
2022/12/21 11:13:13;;;;;;;46.28;24.00;;;;;;;;;;4983583;28;99342;-73
2022/12/21 11:15:52;;;;;;;123.30;49.38;;;;;;;;;;4984065;28;99798;-72
2022/12/21 11:18:43;;;;;;;62.78;28.73;;;;;;;;;;4988204;28;99928;-73
2022/12/21 11:21:30;;;;;;;60.15;26.73;;;;;;;;;;4981076;28;99835;-73
2022/12/21 11:24:02;;;;;;;64.53;35.45;;;;;;;;;;4987044;28;100030;-74
2022/12/21 11:26:32;;;;;;;61.42;30.45;;;;;;;;;;4988606;28;98166;-73
2022/12/21 11:29:03;;;;;;;56.88;32.33;;;;;;;;;;4981747;28;99675;-72
2022/12/21 11:31:30;;;;;;;50.28;32.13;;;;;;;;;;4991510;28;100134;-72
2022/12/21 11:34:05;;;;;;;62.33;31.33;;;;;;;;;;4983465;28;98439;-72
2022/12/21 11:36:31;;;;;;;58.90;32.90;;;;;;;;;;4979042;28;98962;-73
2022/12/21 11:38:58;;;;;;;58.40;32.85;;;;;;;;;;4990999;28;100026;-72
2022/12/21 11:41:26;;;;;;;55.55;33.38;;;;;;;;;;4987343;28;99726;-73
2022/12/21 11:43:53;;;;;;;54.50;34.50;;;;;;;;;;4996965;28;100176;-73
2022/12/21 11:46:24;;;;;;;58.10;32.60;;;;;;;;;;4984448;28;98320;-74
2022/12/21 11:49:16;;;;;;;53.92;32.75;;;;;;;;;;4995050;28;99375;-73
2022/12/21 11:51:43;;;;;;;51.45;34.40;;;;;;;;;;4985443;28;100370;-74
2022/12/21 11:54:09;;;;;;;53.55;32.15;;;;;;;;;;4980775;28;98323;-73
2022/12/21 11:56:47;;;;;;;55.42;34.20;;;;;;;;;;4988717;28;100060;-72
2022/12/21 11:59:16;;;;;;;49.58;31.63;;;;;;;;;;4986200;28;100017;-73
2022/12/21 12:02:01;;;;;;;49.33;32.30;;;;;;;;;;4973590;28;98343;-73
2022/12/21 12:04:43;;;;;;;50.40;33.35;;;;;;;;;;4980460;28;99237;-72
2022/12/21 12:07:29;;;;;;;59.03;30.90;;;;;;;;;;4984971;28;98773;-75
2022/12/21 12:10:14;;;;;;;48.03;31.08;;;;;;;;;;4987434;28;99449;-73
2022/12/21 12:12:53;;;;;;;48.85;28.35;;;;;;;;;;4982699;28;100051;-73
2022/12/21 12:15:23;;;;;;;50.13;29.23;;;;;;;;;;4983846;28;98282;-74
2022/12/21 12:17:52;;;;;;;41.35;22.65;;;;;;;;;;4985441;28;99661;-71
2022/12/21 12:20:18;;;;;;;48.28;28.10;;;;;;;;;;4982478;28;99328;-74
2022/12/21 12:22:48;;;;;;;50.70;30.05;;;;;;;;;;4987531;28;99111;-73
2022/12/21 12:25:20;;;;;;;46.25;28.15;;;;;;;;;;4982368;28;99674;-73
2022/12/21 12:28:05;;;;;;;39.97;25.85;;;;;;;;;;4986277;28;98341;-73
2022/12/21 12:30:40;;;;;;;43.92;24.10;;;;;;;;;;4986799;28;99524;-76
2022/12/21 12:33:12;;;;;;;43.22;25.67;;;;;;;;;;4966669;28;99090;-74
2022/12/21 12:35:44;;;;;;;35.97;23.92;;;;;;;;;;4975363;28;99381;-74
2022/12/21 12:38:23;;;;;;;44.05;24.48;;;;;;;;;;4986391;28;99674;-76
2022/12/21 12:40:58;;;;;;;40.20;23.95;;;;;;;;;;4985747;28;100114;-75
2022/12/21 12:43:51;;;;;;;40.38;23.75;;;;;;;;;;4967717;28;98452;-74
2022/12/21 12:46:36;;;;;;;33.83;23.30;;;;;;;;;;4980979;28;99409;-75
2022/12/21 12:49:03;;;;;;;37.70;23.75;;;;;;;;;;4975714;28;98671;-75
2022/12/21 12:51:29;;;;;;;45.17;24.33;;;;;;;;;;4987746;28;99318;-73
2022/12/21 12:54:08;;;;;;;44.80;23.98;;;;;;;;;;4987012;28;100505;-74
2022/12/21 12:56:43;;;;;;;40.92;22.42;;;;;;;;;;4990495;28;98278;-74
2022/12/21 12:59:20;;;;;;;30.40;21.73;;;;;;;;;;4993619;28;98513;-74
2022/12/21 13:02:03;;;;;;;40.15;25.33;;;;;;;;;;5004577;28;98214;-74
2022/12/21 13:04:43;;;;;;;34.70;21.77;;;;;;;;;;4986929;28;98345;-76
2022/12/21 13:07:25;;;;;;;44.60;26.13;;;;;;;;;;5003322;28;98477;-73
2022/12/21 13:10:10;;;;;;;40.22;24.42;;;;;;;;;;4996872;28;100078;-74
2022/12/21 13:12:52;;;;;;;43.63;25.90;;;;;;;;;;4985767;28;98984;-73
2022/12/21 13:15:21;;;;;;;43.08;25.52;;;;;;;;;;4985650;28;100591;-75
2022/12/21 13:18:08;;;;;;;37.30;22.75;;;;;;;;;;4992543;28;98615;-74
2022/12/21 13:20:35;;;;;;;35.22;24.15;;;;;;;;;;4987204;28;99574;-75
2022/12/21 13:23:05;;;;;;;37.70;23.10;;;;;;;;;;4973472;28;99090;-75
2022/12/21 13:25:38;;;;;;;37.60;21.88;;;;;;;;;;4979629;28;98677;-74
2022/12/21 13:28:04;;;;;;;;;;;;;;;;;;4986868;28;98891;-75
2022/12/21 13:30:33;;;;;;;26.70;17.65;;;;;;;;;;4983856;28;99381;-74
2022/12/21 13:33:08;;;;;;;28.50;16.98;;;;;;;;;;4994338;28;98178;-74
2022/12/21 13:35:39;;;;;;;28.52;17.10;;;;;;;;;;4988189;28;99995;-74
2022/12/21 13:38:13;;;;;;;28.30;17.33;;;;;;;;;;4985061;28;98209;-75
2022/12/21 13:40:41;;;;;;;27.90;18.40;;;;;;;;;;4979895;28;99140;-74
2022/12/21 13:43:20;;;;;;;28.55;18.00;;;;;;;;;;4978864;28;100106;-75
2022/12/21 13:45:47;;;;;;;32.30;17.27;;;;;;;;;;4972258;28;99215;-76
2022/12/21 13:48:16;;;;;;;25.30;16.90;;;;;;;;;;4984532;28;100058;-74
2022/12/21 13:50:56;;;;;;;26.70;17.20;;;;;;;;;;4977028;28;100515;-75
2022/12/21 13:53:34;;;;;;;27.98;16.63;;;;;;;;;;4975748;28;98525;-75
2022/12/21 13:56:04;;;;;;;25.60;15.95;;;;;;;;;;4971431;28;100089;-75
2022/12/21 13:59:06;;;;;;;28.00;17.40;;;;;;;;;;4968320;28;98864;-74
2022/12/21 14:01:50;;;;;;;37.97;18.33;;;;;;;;;;4903164;28;99599;-74
2022/12/21 14:04:16;;;;;;;25.75;17.42;;;;;;;;;;4976415;28;100048;-76
2022/12/21 14:06:46;;;;;;;25.83;17.33;;;;;;;;;;4978484;28;99349;-75
2022/12/21 14:09:41;;;;;;;27.00;18.75;;;;;;;;;;4985226;28;100428;-74
2022/12/21 14:12:44;;;;;;;27.88;18.88;;;;;;;;;;4985850;28;100293;-75
2022/12/21 14:15:17;;;;;;;25.27;19.25;;;;;;;;;;4986645;28;98351;-76
2022/12/21 14:17:45;;;;;;;25.27;15.93;;;;;;;;;;4985462;28;100064;-75
2022/12/21 14:20:29;;;;;;;32.80;19.08;;;;;;;;;;4971532;28;98674;-76
2022/12/21 14:22:57;;;;;;;32.83;18.40;;;;;;;;;;4992846;28;98622;-77
2022/12/21 14:25:29;;;;;;;31.35;19.13;;;;;;;;;;5005899;28;99998;-75
2022/12/21 14:28:05;;;;;;;31.33;17.77;;;;;;;;;;4985216;28;98230;-76
2022/12/21 14:30:32;;;;;;;27.60;18.65;;;;;;;;;;4987359;28;99907;-76
2022/12/21 14:33:04;;;;;;;33.10;19.40;;;;;;;;;;5010893;28;100220;-75
2022/12/21 14:35:33;;;;;;;;;;;;;;;;;;4979308;28;99195;-75
2022/12/21 14:38:08;;;;;;;31.05;19.65;;;;;;;;;;4986251;28;128824;-77
2022/12/21 14:41:01;;;;;;;32.03;19.65;;;;;;;;;;4991506;28;100122;-75
2022/12/21 14:43:28;;;;;;;35.50;22.67;;;;;;;;;;4958012;28;99656;-77
2022/12/21 14:45:54;;;;;;;34.78;23.17;;;;;;;;;;4989372;28;99208;-76